createdAt,value
2017-08-29T00:00:02.029Z,58.3
2017-08-29T00:01:03.851Z,58.6
2017-08-29T00:02:05.647Z,58.2
2017-08-29T00:03:07.829Z,58.4
2017-08-29T00:04:09.961Z,58.5
2017-08-29T00:05:11.738Z,58.3
2017-08-29T00:06:13.567Z,58.3
2017-08-29T00:07:15.344Z,58.3
2017-08-29T00:08:16.815Z,58.4
2017-08-29T00:09:18.606Z,58.5
2017-08-29T00:10:20.739Z,58.1
2017-08-29T00:11:22.534Z,58.5
2017-08-29T00:12:24.665Z,58.2
2017-08-29T00:13:26.794Z,58.3
2017-08-29T00:14:28.944Z,58.3
2017-08-29T00:15:31.074Z,58.2
2017-08-29T00:16:32.871Z,58.3
2017-08-29T00:17:34.666Z,58.4
2017-08-29T00:18:36.797Z,58.2
2017-08-29T00:19:38.927Z,58.1
2017-08-29T00:20:40.386Z,58.4
2017-08-29T00:21:42.184Z,58.1
2017-08-29T00:22:43.979Z,58.4
2017-08-29T00:23:45.776Z,58.2
2017-08-29T00:24:47.572Z,58.4
2017-08-29T00:25:49.368Z,58.3
2017-08-29T00:26:51.497Z,58.1
2017-08-29T00:27:53.628Z,58.4
2017-08-29T00:28:55.425Z,58.6
2017-08-29T00:29:57.554Z,58.3
2017-08-29T00:30:59.684Z,58.2
2017-08-29T00:32:01.457Z,58.2
2017-08-29T00:33:03.253Z,58.6
2017-08-29T00:34:04.712Z,58.5
2017-08-29T00:35:06.843Z,58.3
2017-08-29T00:36:08.634Z,58.3
2017-08-29T00:37:09.405Z,58.4
2017-08-29T00:38:10.847Z,58.3
2017-08-29T00:39:12.309Z,58.4
2017-08-29T00:40:14.142Z,58.4
2017-08-29T00:41:16.272Z,58.5
2017-08-29T00:42:17.731Z,58.4
2017-08-29T00:43:19.500Z,58.4
2017-08-29T00:44:20.963Z,58.6
2017-08-29T00:45:22.425Z,58.6
2017-08-29T00:46:24.219Z,58.4
2017-08-29T00:47:26.346Z,58.6
2017-08-29T00:48:27.810Z,58.5
2017-08-29T00:49:29.604Z,58.6
2017-08-29T00:50:31.401Z,58.6
2017-08-29T00:51:33.202Z,58.4
2017-08-29T00:52:34.992Z,58.4
2017-08-29T00:53:36.458Z,58.6
2017-08-29T00:54:38.265Z,58.3
2017-08-29T00:55:40.059Z,58.5
2017-08-29T00:56:41.853Z,58.7
2017-08-29T00:57:44.002Z,58.2
2017-08-29T00:58:46.118Z,58.3
2017-08-29T00:59:47.556Z,58.3
2017-08-29T01:00:49.702Z,58.6
2017-08-29T01:01:51.475Z,58.5
2017-08-29T01:02:53.271Z,58.3
2017-08-29T01:03:55.402Z,58.4
2017-08-29T01:04:57.535Z,58.4
2017-08-29T01:05:58.992Z,58.4
2017-08-29T01:07:00.791Z,58.3
2017-08-29T01:08:02.587Z,58.3
2017-08-29T01:09:04.722Z,58.5
2017-08-29T01:10:06.847Z,58.6
2017-08-29T01:11:08.640Z,58.5
2017-08-29T01:12:10.120Z,58.3
2017-08-29T01:13:12.247Z,58.5
2017-08-29T01:14:14.044Z,58.4
2017-08-29T01:15:16.173Z,58.6
2017-08-29T01:16:18.307Z,58.6
2017-08-29T01:17:20.439Z,58.3
2017-08-29T01:18:21.900Z,58.5
2017-08-29T01:19:23.697Z,58.3
2017-08-29T01:20:25.468Z,58.3
2017-08-29T01:21:26.912Z,58.5
2017-08-29T01:22:28.705Z,58.2
2017-08-29T01:23:30.500Z,58.5
2017-08-29T01:24:31.275Z,58.6
2017-08-29T01:25:32.714Z,58.5
2017-08-29T01:26:34.845Z,58.5
2017-08-29T01:27:36.620Z,58.4
2017-08-29T01:28:38.394Z,58.3
2017-08-29T01:29:40.522Z,58.5
2017-08-29T01:30:42.296Z,58.5
2017-08-29T01:31:43.737Z,58.5
2017-08-29T01:32:45.868Z,58.6
2017-08-29T01:33:46.975Z,58.5
2017-08-29T01:34:49.105Z,58.3
2017-08-29T01:35:51.241Z,58.3
2017-08-29T01:36:53.011Z,58.4
2017-08-29T01:37:55.145Z,58.5
2017-08-29T01:38:56.917Z,58.5
2017-08-29T01:39:59.048Z,58.4
2017-08-29T01:41:00.844Z,58.5
2017-08-29T01:42:02.972Z,58.6
2017-08-29T01:43:04.436Z,58.5
2017-08-29T01:44:05.897Z,58.5
2017-08-29T01:45:08.025Z,58.4
2017-08-29T01:46:09.821Z,58.5
2017-08-29T01:47:11.972Z,58.6
2017-08-29T01:48:13.418Z,58.7
2017-08-29T01:49:15.246Z,58.4
2017-08-29T01:50:17.020Z,58.5
2017-08-29T01:51:18.479Z,58.5
2017-08-29T01:52:20.608Z,58.6
2017-08-29T01:53:22.739Z,58.7
2017-08-29T01:54:24.535Z,58.3
2017-08-29T01:55:26.310Z,58.4
2017-08-29T01:56:28.451Z,58.6
2017-08-29T01:57:30.582Z,58.4
2017-08-29T01:58:32.357Z,58.4
2017-08-29T01:59:33.798Z,58.6
2017-08-29T02:00:35.926Z,58.3
2017-08-29T02:01:38.057Z,58.5
2017-08-29T02:02:39.855Z,58.5
2017-08-29T02:03:42.008Z,58.2
2017-08-29T02:04:43.443Z,58.3
2017-08-29T02:05:45.241Z,58.5
2017-08-29T02:06:47.372Z,58.6
2017-08-29T02:07:49.168Z,58.3
2017-08-29T02:08:50.966Z,58.6
2017-08-29T02:09:53.096Z,58.4
2017-08-29T02:10:54.892Z,58.4
2017-08-29T02:11:57.021Z,58.5
2017-08-29T02:12:59.156Z,58.4
2017-08-29T02:14:01.283Z,58.4
2017-08-29T02:15:03.082Z,58.5
2017-08-29T02:16:04.538Z,58.4
2017-08-29T02:17:06.313Z,58.4
2017-08-29T02:18:08.087Z,58.4
2017-08-29T02:19:09.550Z,58.5
2017-08-29T02:20:11.682Z,58.6
2017-08-29T02:21:13.477Z,58.4
2017-08-29T02:22:15.610Z,58.4
2017-08-29T02:23:17.407Z,58.4
2017-08-29T02:24:18.846Z,58.7
2017-08-29T02:25:20.639Z,58.3
2017-08-29T02:26:22.769Z,58.4
2017-08-29T02:27:24.567Z,58.4
2017-08-29T02:28:26.363Z,58.5
2017-08-29T02:29:27.813Z,58.4
2017-08-29T02:30:29.943Z,58.4
2017-08-29T02:31:31.717Z,58.3
2017-08-29T02:32:33.847Z,58.4
2017-08-29T02:33:35.646Z,58.4
2017-08-29T02:34:36.750Z,58.6
2017-08-29T02:35:38.880Z,58.4
2017-08-29T02:36:41.012Z,58.5
2017-08-29T02:37:42.474Z,58.4
2017-08-29T02:38:44.270Z,58.4
2017-08-29T02:39:46.398Z,58.4
2017-08-29T02:40:48.528Z,58.3
2017-08-29T02:41:50.683Z,58.6
2017-08-29T02:42:52.815Z,58.4
2017-08-29T02:43:54.942Z,58.4
2017-08-29T02:44:56.404Z,58.4
2017-08-29T02:45:58.537Z,58.7
2017-08-29T02:47:00.330Z,58.4
2017-08-29T02:48:02.151Z,58.3
2017-08-29T02:49:03.942Z,58.3
2017-08-29T02:50:06.074Z,58.4
2017-08-29T02:51:07.872Z,58.5
2017-08-29T02:52:09.312Z,58.4
2017-08-29T02:53:11.440Z,58.5
2017-08-29T02:54:13.236Z,58.5
2017-08-29T02:55:14.675Z,58.5
2017-08-29T02:56:16.803Z,58.4
2017-08-29T02:57:18.597Z,58.5
2017-08-29T02:58:20.035Z,58.5
2017-08-29T02:59:21.816Z,58.4
2017-08-29T03:00:23.946Z,58.4
2017-08-29T03:01:25.385Z,58.4
2017-08-29T03:02:27.515Z,58.6
2017-08-29T03:03:29.309Z,58.6
2017-08-29T03:04:30.414Z,58.5
2017-08-29T03:05:32.209Z,58.5
2017-08-29T03:06:34.009Z,58.6
2017-08-29T03:07:35.815Z,58.6
2017-08-29T03:08:37.253Z,58.6
2017-08-29T03:09:39.383Z,58.6
2017-08-29T03:10:40.821Z,58.5
2017-08-29T03:11:42.617Z,58.5
2017-08-29T03:12:44.747Z,58.5
2017-08-29T03:13:46.877Z,58.2
2017-08-29T03:14:48.651Z,58.3
2017-08-29T03:15:50.449Z,58.6
2017-08-29T03:16:52.575Z,58.6
2017-08-29T03:17:54.705Z,58.4
2017-08-29T03:18:56.500Z,58.5
2017-08-29T03:19:58.297Z,58.5
2017-08-29T03:21:00.093Z,58.6
2017-08-29T03:22:01.558Z,58.3
2017-08-29T03:23:03.330Z,58.6
2017-08-29T03:24:04.771Z,58.2
2017-08-29T03:25:06.212Z,58.3
2017-08-29T03:26:08.006Z,58.5
2017-08-29T03:27:10.138Z,58.5
2017-08-29T03:28:11.930Z,58.4
2017-08-29T03:29:13.725Z,58.5
2017-08-29T03:30:15.520Z,58.4
2017-08-29T03:31:17.293Z,58.5
2017-08-29T03:32:19.090Z,58.5
2017-08-29T03:33:20.550Z,58.6
2017-08-29T03:34:22.344Z,58.3
2017-08-29T03:35:24.142Z,58.5
2017-08-29T03:36:26.273Z,58.5
2017-08-29T03:37:28.401Z,58.5
2017-08-29T03:38:30.194Z,58.5
2017-08-29T03:39:31.965Z,58.5
2017-08-29T03:40:33.761Z,58.6
2017-08-29T03:41:35.556Z,58.5
2017-08-29T03:42:37.364Z,58.3
2017-08-29T03:43:39.160Z,58.4
2017-08-29T03:44:41.288Z,58.5
2017-08-29T03:45:43.085Z,58.3
2017-08-29T03:46:44.190Z,58.3
2017-08-29T03:47:46.320Z,58.3
2017-08-29T03:48:48.113Z,58.3
2017-08-29T03:49:50.244Z,58.5
2017-08-29T03:50:52.373Z,58.3
2017-08-29T03:51:54.151Z,58.4
2017-08-29T03:52:55.261Z,58.6
2017-08-29T03:53:56.715Z,58.5
2017-08-29T03:54:58.862Z,58.3
2017-08-29T03:56:00.990Z,58.5
2017-08-29T03:57:02.450Z,58.4
2017-08-29T03:58:03.557Z,58.5
2017-08-29T03:59:05.692Z,58.4
2017-08-29T04:00:07.822Z,58.5
2017-08-29T04:01:08.924Z,58.6
2017-08-29T04:02:10.725Z,58.4
2017-08-29T04:03:12.859Z,58.2
2017-08-29T04:04:14.655Z,58.4
2017-08-29T04:05:16.450Z,58.5
2017-08-29T04:06:18.578Z,58.4
2017-08-29T04:07:20.018Z,58.4
2017-08-29T04:08:21.791Z,58.4
2017-08-29T04:09:22.898Z,58.4
2017-08-29T04:10:24.341Z,58.1
2017-08-29T04:11:25.804Z,58.6
2017-08-29T04:12:27.933Z,58.4
2017-08-29T04:13:30.063Z,58.4
2017-08-29T04:14:31.501Z,58.3
2017-08-29T04:15:33.274Z,58.3
2017-08-29T04:16:35.072Z,58.3
2017-08-29T04:17:36.864Z,58.3
2017-08-29T04:18:38.995Z,58.3
2017-08-29T04:19:40.770Z,58.2
2017-08-29T04:20:42.232Z,58.3
2017-08-29T04:21:43.670Z,58.4
2017-08-29T04:22:45.441Z,58.3
2017-08-29T04:23:46.900Z,58.5
2017-08-29T04:24:48.700Z,58.4
2017-08-29T04:25:50.832Z,58.1
2017-08-29T04:26:52.965Z,58.5
2017-08-29T04:27:54.764Z,58.5
2017-08-29T04:28:56.892Z,58.3
2017-08-29T04:29:59.022Z,58.4
2017-08-29T04:31:01.150Z,58.2
2017-08-29T04:32:02.947Z,58.2
2017-08-29T04:33:04.745Z,58.5
2017-08-29T04:34:06.541Z,58.2
2017-08-29T04:35:07.653Z,58.3
2017-08-29T04:36:08.755Z,58.2
2017-08-29T04:37:10.552Z,58.6
2017-08-29T04:38:12.340Z,58.4
2017-08-29T04:39:14.471Z,58.3
2017-08-29T04:40:16.272Z,58.6
2017-08-29T04:41:18.402Z,58.2
2017-08-29T04:42:19.859Z,58.3
2017-08-29T04:43:21.986Z,58.2
2017-08-29T04:44:23.784Z,58.1
2017-08-29T04:45:25.914Z,58.1
2017-08-29T04:46:26.689Z,58.2
2017-08-29T04:47:28.497Z,58.2
2017-08-29T04:48:30.618Z,58.1
2017-08-29T04:49:32.470Z,58.2
2017-08-29T04:50:34.264Z,58.5
2017-08-29T04:51:35.405Z,58.4
2017-08-29T04:52:37.200Z,58.2
2017-08-29T04:53:38.640Z,58.1
2017-08-29T04:54:40.437Z,58.2
2017-08-29T04:55:42.569Z,58.2
2017-08-29T04:56:44.364Z,58.1
2017-08-29T04:57:46.158Z,58.3
2017-08-29T04:58:47.955Z,58.3
2017-08-29T04:59:50.090Z,58.2
2017-08-29T05:00:52.220Z,58.4
2017-08-29T05:01:53.996Z,58.3
2017-08-29T05:02:55.796Z,58.1
2017-08-29T05:03:57.926Z,58.5
2017-08-29T05:05:00.060Z,58.1
2017-08-29T05:06:02.203Z,58.1
2017-08-29T05:07:03.999Z,58.1
2017-08-29T05:08:05.768Z,58.3
2017-08-29T05:09:07.565Z,58.4
2017-08-29T05:10:09.025Z,58.2
2017-08-29T05:11:10.138Z,58.3
2017-08-29T05:12:11.236Z,58.3
2017-08-29T05:13:13.368Z,58.1
2017-08-29T05:14:15.497Z,58.3
2017-08-29T05:15:17.293Z,58.3
2017-08-29T05:16:18.735Z,58.2
2017-08-29T05:17:19.837Z,58.2
2017-08-29T05:18:21.970Z,58.2
2017-08-29T05:19:23.412Z,58.1
2017-08-29T05:20:24.868Z,58.2
2017-08-29T05:21:26.293Z,58.3
2017-08-29T05:22:27.754Z,58.2
2017-08-29T05:23:28.859Z,58.1
2017-08-29T05:24:30.655Z,58.2
2017-08-29T05:25:32.453Z,58.1
2017-08-29T05:26:34.582Z,58.1
2017-08-29T05:27:36.714Z,58.2
2017-08-29T05:28:38.849Z,58.2
2017-08-29T05:29:40.648Z,58.1
2017-08-29T05:30:41.777Z,58.1
2017-08-29T05:31:42.884Z,58.1
2017-08-29T05:32:44.679Z,58.2
2017-08-29T05:33:46.477Z,58.2
2017-08-29T05:34:48.606Z,58.2
2017-08-29T05:35:49.741Z,58.1
2017-08-29T05:36:51.870Z,58.2
2017-08-29T05:37:52.977Z,58.2
2017-08-29T05:38:54.498Z,58.1
2017-08-29T05:39:55.623Z,58.2
2017-08-29T05:40:57.419Z,58.2
2017-08-29T05:41:59.217Z,58.2
2017-08-29T05:43:00.673Z,58.2
2017-08-29T05:44:02.448Z,58.1
2017-08-29T05:45:04.248Z,58.2
2017-08-29T05:46:05.721Z,58.2
2017-08-29T05:47:07.506Z,58.4
2017-08-29T05:48:09.281Z,58.2
2017-08-29T05:49:10.724Z,58.2
2017-08-29T05:50:12.855Z,58.2
2017-08-29T05:51:14.315Z,58.2
2017-08-29T05:52:15.421Z,58.2
2017-08-29T05:53:17.200Z,58.2
2017-08-29T05:54:19.329Z,58.1
2017-08-29T05:55:20.436Z,58.2
2017-08-29T05:56:22.569Z,58.3
2017-08-29T05:57:24.363Z,58.4
2017-08-29T05:58:26.159Z,57.8
2017-08-29T05:59:28.293Z,58.1
2017-08-29T06:00:30.065Z,58.1
2017-08-29T06:01:31.861Z,58.1
2017-08-29T06:02:33.658Z,58.1
2017-08-29T06:03:35.458Z,58.1
2017-08-29T06:04:36.912Z,58.2
2017-08-29T06:05:38.704Z,58.3
2017-08-29T06:06:40.501Z,58.2
2017-08-29T06:07:42.278Z,58.1
2017-08-29T06:08:44.072Z,58.2
2017-08-29T06:09:46.203Z,58
2017-08-29T06:10:48.000Z,58.2
2017-08-29T06:11:50.134Z,57.9
2017-08-29T06:12:51.570Z,58.1
2017-08-29T06:13:53.699Z,58.1
2017-08-29T06:14:55.494Z,58
2017-08-29T06:15:57.290Z,57.9
2017-08-29T06:16:58.735Z,58.1
2017-08-29T06:18:00.512Z,58
2017-08-29T06:19:02.643Z,58.1
2017-08-29T06:20:04.772Z,57.9
2017-08-29T06:21:06.212Z,58
2017-08-29T06:22:08.344Z,58.1
2017-08-29T06:23:10.472Z,58
2017-08-29T06:24:11.915Z,58
2017-08-29T06:25:14.048Z,58
2017-08-29T06:26:15.843Z,58.2
2017-08-29T06:27:17.972Z,58.1
2017-08-29T06:28:19.767Z,58.1
2017-08-29T06:29:21.570Z,58.1
2017-08-29T06:30:23.343Z,58
2017-08-29T06:31:24.807Z,58.1
2017-08-29T06:32:26.584Z,58.1
2017-08-29T06:33:28.375Z,57.9
2017-08-29T06:34:30.511Z,58
2017-08-29T06:35:31.966Z,58.2
2017-08-29T06:36:34.115Z,58
2017-08-29T06:37:35.949Z,58
2017-08-29T06:38:37.751Z,57.9
2017-08-29T06:39:39.879Z,57.9
2017-08-29T06:40:42.011Z,57.9
2017-08-29T06:41:43.789Z,57.8
2017-08-29T06:42:45.589Z,57.8
2017-08-29T06:43:47.729Z,57.8
2017-08-29T06:44:49.525Z,58
2017-08-29T06:45:51.658Z,57.7
2017-08-29T06:46:53.839Z,57.7
2017-08-29T06:47:55.642Z,57.6
2017-08-29T06:48:57.438Z,57.6
2017-08-29T06:49:59.234Z,57.6
2017-08-29T06:51:01.079Z,57.7
2017-08-29T06:52:02.877Z,57.6
2017-08-29T06:53:05.104Z,57.9
2017-08-29T06:54:07.235Z,57.5
2017-08-29T06:55:09.368Z,57.5
2017-08-29T06:56:11.501Z,57.4
2017-08-29T06:57:13.297Z,57.4
2017-08-29T06:58:14.743Z,57.5
2017-08-29T06:59:16.544Z,57.4
2017-08-29T07:00:18.339Z,57.4
2017-08-29T07:01:20.469Z,57.6
2017-08-29T07:02:21.578Z,57.3
2017-08-29T07:03:23.017Z,57.4
2017-08-29T07:04:24.553Z,57.4
2017-08-29T07:05:25.724Z,57.4
2017-08-29T07:06:26.860Z,57.4
2017-08-29T07:07:28.328Z,57.7
2017-08-29T07:08:29.792Z,57.6
2017-08-29T07:09:31.254Z,57.5
2017-08-29T07:10:33.399Z,57.4
2017-08-29T07:11:34.870Z,57.4
2017-08-29T07:12:36.313Z,57.3
2017-08-29T07:13:37.760Z,57.3
2017-08-29T07:14:39.538Z,57.3
2017-08-29T07:15:41.320Z,57.6
2017-08-29T07:16:43.123Z,57.2
2017-08-29T07:17:45.263Z,57.3
2017-08-29T07:18:47.052Z,57.2
2017-08-29T07:19:48.490Z,57.6
2017-08-29T07:20:49.952Z,57.3
2017-08-29T07:21:51.731Z,57.3
2017-08-29T07:22:53.514Z,57.7
2017-08-29T07:23:54.981Z,57.7
2017-08-29T07:24:56.442Z,57.2
2017-08-29T07:25:58.577Z,57.3
2017-08-29T07:27:00.722Z,57.3
2017-08-29T07:28:02.187Z,57.3
2017-08-29T07:29:03.962Z,57.2
2017-08-29T07:30:06.098Z,57.2
2017-08-29T07:31:07.205Z,57.3
2017-08-29T07:32:08.983Z,57.1
2017-08-29T07:33:11.116Z,57.3
2017-08-29T07:34:13.250Z,57.1
2017-08-29T07:35:15.037Z,57.2
2017-08-29T07:36:17.166Z,57.3
2017-08-29T07:37:19.321Z,57.2
2017-08-29T07:38:21.117Z,57.2
2017-08-29T07:39:22.913Z,57.5
2017-08-29T07:40:25.065Z,57.2
2017-08-29T07:41:27.202Z,57.3
2017-08-29T07:42:28.977Z,57.3
2017-08-29T07:43:31.111Z,57.1
2017-08-29T07:44:32.555Z,57.3
2017-08-29T07:45:34.354Z,57.1
2017-08-29T07:46:36.485Z,57.1
2017-08-29T07:47:37.933Z,57.1
2017-08-29T07:48:39.401Z,57.3
2017-08-29T07:49:41.202Z,57.2
2017-08-29T07:50:42.655Z,57.1
2017-08-29T07:51:44.791Z,57.1
2017-08-29T07:52:46.930Z,57.2
2017-08-29T07:53:48.387Z,57.1
2017-08-29T07:54:50.187Z,57.1
2017-08-29T07:55:51.973Z,57.1
2017-08-29T07:56:53.448Z,57
2017-08-29T07:57:55.248Z,57.1
2017-08-29T07:58:57.053Z,57.1
2017-08-29T07:59:58.860Z,57.3
2017-08-29T08:01:00.663Z,57
2017-08-29T08:02:02.138Z,57
2017-08-29T08:03:03.939Z,56.9
2017-08-29T08:04:05.739Z,57.1
2017-08-29T08:05:07.531Z,56.9
2017-08-29T08:06:09.011Z,56.9
2017-08-29T08:07:10.811Z,56.9
2017-08-29T08:08:12.277Z,57
2017-08-29T08:09:13.721Z,56.9
2017-08-29T08:10:15.525Z,56.9
2017-08-29T08:11:17.325Z,56.9
2017-08-29T08:12:19.460Z,56.9
2017-08-29T08:13:21.241Z,57.3
2017-08-29T08:14:22.682Z,56.9
2017-08-29T08:15:24.138Z,57
2017-08-29T08:16:25.932Z,57.4
2017-08-29T08:17:27.376Z,56.8
2017-08-29T08:18:28.815Z,56.9
2017-08-29T08:19:30.259Z,57.1
2017-08-29T08:20:32.410Z,56.8
2017-08-29T08:21:34.184Z,56.8
2017-08-29T08:22:35.964Z,57.3
2017-08-29T08:23:37.746Z,57
2017-08-29T08:24:39.927Z,56.8
2017-08-29T08:25:42.057Z,57
2017-08-29T08:26:43.837Z,56.9
2017-08-29T08:27:45.990Z,57
2017-08-29T08:28:47.787Z,56.9
2017-08-29T08:29:48.897Z,57
2017-08-29T08:30:50.684Z,56.9
2017-08-29T08:31:52.489Z,56.8
2017-08-29T08:32:53.599Z,56.9
2017-08-29T08:33:55.403Z,56.8
2017-08-29T08:34:57.539Z,56.8
2017-08-29T08:35:58.982Z,57.4
2017-08-29T08:37:00.787Z,57.1
2017-08-29T08:38:02.586Z,56.8
2017-08-29T08:39:04.723Z,57.3
2017-08-29T08:40:06.177Z,56.9
2017-08-29T08:41:07.952Z,56.9
2017-08-29T08:42:09.756Z,57
2017-08-29T08:43:11.927Z,56.9
2017-08-29T08:44:13.722Z,56.9
2017-08-29T08:45:15.571Z,56.8
2017-08-29T08:46:17.347Z,56.8
2017-08-29T08:47:19.145Z,56.8
2017-08-29T08:48:20.930Z,56.8
2017-08-29T08:49:22.374Z,56.8
2017-08-29T08:50:23.840Z,57
2017-08-29T08:51:25.287Z,56.9
2017-08-29T08:52:27.066Z,57
2017-08-29T08:53:29.228Z,56.8
2017-08-29T08:54:30.689Z,56.8
2017-08-29T08:55:32.152Z,56.8
2017-08-29T08:56:33.928Z,56.9
2017-08-29T08:57:36.090Z,57.1
2017-08-29T08:58:37.882Z,56.9
2017-08-29T08:59:40.012Z,56.8
2017-08-29T09:00:41.816Z,56.9
2017-08-29T09:01:42.932Z,56.8
2017-08-29T09:02:44.712Z,57.1
2017-08-29T09:03:46.182Z,56.8
2017-08-29T09:04:47.984Z,56.8
2017-08-29T09:05:49.762Z,56.8
2017-08-29T09:06:51.567Z,57
2017-08-29T09:07:53.365Z,56.7
2017-08-29T09:08:55.497Z,56.8
2017-08-29T09:09:56.961Z,56.8
2017-08-29T09:10:58.764Z,56.6
2017-08-29T09:11:59.895Z,56.8
2017-08-29T09:13:01.365Z,56.8
2017-08-29T09:14:02.843Z,56.7
2017-08-29T09:15:04.291Z,56.9
2017-08-29T09:16:06.088Z,56.8
2017-08-29T09:17:07.556Z,56.7
2017-08-29T09:18:09.356Z,56.8
2017-08-29T09:19:10.821Z,56.8
2017-08-29T09:20:12.956Z,56.7
2017-08-29T09:21:15.086Z,56.8
2017-08-29T09:22:16.556Z,56.7
2017-08-29T09:23:18.691Z,56.7
2017-08-29T09:24:20.496Z,56.9
2017-08-29T09:25:22.641Z,56.7
2017-08-29T09:26:24.539Z,56.7
2017-08-29T09:27:26.008Z,56.7
2017-08-29T09:28:27.453Z,56.5
2017-08-29T09:29:28.916Z,56.6
2017-08-29T09:30:30.718Z,56.6
2017-08-29T09:31:31.492Z,56.7
2017-08-29T09:32:33.280Z,56.7
2017-08-29T09:33:34.737Z,56.6
2017-08-29T09:34:36.536Z,56.4
2017-08-29T09:35:38.671Z,56.4
2017-08-29T09:36:40.475Z,56.6
2017-08-29T09:37:42.608Z,56.8
2017-08-29T09:38:44.501Z,56.6
2017-08-29T09:39:46.631Z,56.4
2017-08-29T09:40:48.765Z,56.7
2017-08-29T09:41:50.208Z,56.6
2017-08-29T09:42:52.345Z,56.6
2017-08-29T09:43:54.155Z,56.6
2017-08-29T09:44:56.292Z,56.5
2017-08-29T09:45:57.425Z,56.5
2017-08-29T09:46:59.227Z,56.3
2017-08-29T09:48:01.028Z,56.4
2017-08-29T09:49:02.482Z,56.4
2017-08-29T09:50:04.281Z,56.5
2017-08-29T09:51:06.082Z,56.5
2017-08-29T09:52:07.543Z,56.5
2017-08-29T09:53:09.326Z,56.3
2017-08-29T09:54:10.435Z,56.7
2017-08-29T09:55:12.233Z,56.5
2017-08-29T09:56:14.033Z,56.6
2017-08-29T09:57:15.832Z,56.9
2017-08-29T09:58:17.638Z,56.7
2017-08-29T09:59:19.085Z,56.3
2017-08-29T10:00:20.886Z,56.6
2017-08-29T10:01:22.000Z,56.3
2017-08-29T10:02:24.163Z,56.4
2017-08-29T10:03:25.273Z,56.4
2017-08-29T10:04:27.406Z,56.2
2017-08-29T10:05:29.543Z,56.6
2017-08-29T10:06:31.378Z,56.3
2017-08-29T10:07:33.543Z,56.6
2017-08-29T10:08:35.351Z,56.3
2017-08-29T10:09:36.816Z,56.5
2017-08-29T10:10:38.952Z,56.2
2017-08-29T10:11:40.396Z,56.3
2017-08-29T10:12:42.237Z,56.2
2017-08-29T10:13:44.038Z,56.5
2017-08-29T10:14:45.484Z,56.5
2017-08-29T10:15:47.261Z,56.3
2017-08-29T10:16:49.395Z,56.6
2017-08-29T10:17:51.523Z,56.3
2017-08-29T10:18:53.660Z,56.5
2017-08-29T10:19:54.794Z,56.5
2017-08-29T10:20:56.932Z,56.6
2017-08-29T10:21:59.080Z,56.7
2017-08-29T10:23:00.908Z,56.6
2017-08-29T10:24:02.713Z,56.7
2017-08-29T10:25:04.516Z,56.5
2017-08-29T10:26:06.687Z,56.5
2017-08-29T10:27:08.151Z,56.5
2017-08-29T10:28:10.290Z,56.5
2017-08-29T10:29:12.094Z,56.3
2017-08-29T10:30:13.899Z,56.5
2017-08-29T10:31:15.695Z,56.5
2017-08-29T10:32:17.190Z,56.5
2017-08-29T10:33:18.973Z,56.4
2017-08-29T10:34:20.420Z,56.6
2017-08-29T10:35:22.569Z,56.5
2017-08-29T10:36:24.702Z,56.4
2017-08-29T10:37:26.839Z,56.3
2017-08-29T10:38:28.980Z,56.7
2017-08-29T10:39:30.789Z,56.4
2017-08-29T10:40:32.586Z,56.7
2017-08-29T10:41:34.725Z,56.1
2017-08-29T10:42:36.526Z,56.5
2017-08-29T10:43:38.301Z,56.8
2017-08-29T10:44:40.435Z,56.1
2017-08-29T10:45:42.240Z,56.2
2017-08-29T10:46:44.038Z,56.3
2017-08-29T10:47:45.479Z,56.2
2017-08-29T10:48:47.283Z,56.1
2017-08-29T10:49:49.437Z,56.7
2017-08-29T10:50:51.573Z,56.4
2017-08-29T10:51:53.705Z,56.4
2017-08-29T10:52:55.509Z,56.5
2017-08-29T10:53:57.317Z,56.2
2017-08-29T10:54:59.165Z,56.5
2017-08-29T10:56:01.297Z,56.4
2017-08-29T10:57:03.433Z,56.3
2017-08-29T10:58:05.571Z,56.4
2017-08-29T10:59:07.038Z,56.3
2017-08-29T11:00:08.844Z,56.5
2017-08-29T11:01:09.955Z,56.1
2017-08-29T11:02:12.091Z,56.4
2017-08-29T11:03:13.870Z,56.2
2017-08-29T11:04:15.003Z,56.4
2017-08-29T11:05:16.804Z,56.3
2017-08-29T11:06:18.267Z,56.5
2017-08-29T11:07:19.707Z,56.6
2017-08-29T11:08:21.842Z,56.8
2017-08-29T11:09:23.288Z,57
2017-08-29T11:10:25.085Z,56.9
2017-08-29T11:11:26.864Z,56.8
2017-08-29T11:12:28.649Z,56.7
2017-08-29T11:13:30.094Z,57
2017-08-29T11:14:31.566Z,56.7
2017-08-29T11:15:33.360Z,56.3
2017-08-29T11:16:34.800Z,56.6
2017-08-29T11:17:36.598Z,56.6
2017-08-29T11:18:38.396Z,56.5
2017-08-29T11:19:40.528Z,56.8
2017-08-29T11:20:41.971Z,56.5
2017-08-29T11:21:44.108Z,56.4
2017-08-29T11:22:45.903Z,56.3
2017-08-29T11:23:48.036Z,56.5
2017-08-29T11:24:49.817Z,56.6
2017-08-29T11:25:51.613Z,56.6
2017-08-29T11:26:53.413Z,56.3
2017-08-29T11:27:55.551Z,56.5
2017-08-29T11:28:57.681Z,56.3
2017-08-29T11:29:59.125Z,56.7
2017-08-29T11:31:00.929Z,56.7
2017-08-29T11:32:03.065Z,56.1
2017-08-29T11:33:04.529Z,56.2
2017-08-29T11:34:06.306Z,56.1
2017-08-29T11:35:08.440Z,56.2
2017-08-29T11:36:10.572Z,56.3
2017-08-29T11:37:12.014Z,56.5
2017-08-29T11:38:13.477Z,56.2
2017-08-29T11:39:15.253Z,56.3
2017-08-29T11:40:17.034Z,56.2
2017-08-29T11:41:18.834Z,56.3
2017-08-29T11:42:20.962Z,56.2
2017-08-29T11:43:22.758Z,56.1
2017-08-29T11:44:24.611Z,56.1
2017-08-29T11:45:26.404Z,56.4
2017-08-29T11:46:28.539Z,56.4
2017-08-29T11:47:30.340Z,56.2
2017-08-29T11:48:32.506Z,56.4
2017-08-29T11:49:34.336Z,56.4
2017-08-29T11:50:36.473Z,56.4
2017-08-29T11:51:37.913Z,56.3
2017-08-29T11:52:40.052Z,55.9
2017-08-29T11:53:42.182Z,56.2
2017-08-29T11:54:43.995Z,56.4
2017-08-29T11:55:45.436Z,55.8
2017-08-29T11:56:47.235Z,56.5
2017-08-29T11:57:49.368Z,55.9
2017-08-29T11:58:51.499Z,55.9
2017-08-29T11:59:53.276Z,55.8
2017-08-29T12:00:55.404Z,55.9
2017-08-29T12:01:57.534Z,55.8
2017-08-29T12:02:58.982Z,55.7
2017-08-29T12:04:00.782Z,55.7
2017-08-29T12:05:02.915Z,56
2017-08-29T12:06:04.687Z,55.8
2017-08-29T12:07:06.464Z,55.7
2017-08-29T12:08:08.267Z,55.8
2017-08-29T12:09:10.061Z,55.9
2017-08-29T12:10:11.521Z,56
2017-08-29T12:11:13.320Z,55.8
2017-08-29T12:12:15.117Z,56
2017-08-29T12:13:16.918Z,56.1
2017-08-29T12:14:18.367Z,56
2017-08-29T12:15:20.146Z,55.7
2017-08-29T12:16:21.607Z,56.1
2017-08-29T12:17:23.409Z,56
2017-08-29T12:18:25.540Z,56.1
2017-08-29T12:19:27.339Z,55.8
2017-08-29T12:20:29.116Z,56.2
2017-08-29T12:21:30.918Z,55.6
2017-08-29T12:22:32.710Z,55.5
2017-08-29T12:23:34.842Z,55.8
2017-08-29T12:24:36.639Z,55.5
2017-08-29T12:25:38.440Z,55.5
2017-08-29T12:26:40.239Z,55.9
2017-08-29T12:27:41.700Z,55.9
2017-08-29T12:28:43.834Z,55.9
2017-08-29T12:29:45.626Z,55.7
2017-08-29T12:30:47.406Z,55.5
2017-08-29T12:31:49.205Z,55.4
2017-08-29T12:32:51.336Z,55.6
2017-08-29T12:33:53.136Z,55.7
2017-08-29T12:34:55.268Z,55.6
2017-08-29T12:35:57.399Z,56
2017-08-29T12:36:59.177Z,55.5
2017-08-29T12:38:00.978Z,55.6
2017-08-29T12:39:02.781Z,55.6
2017-08-29T12:40:03.889Z,55.8
2017-08-29T12:41:05.685Z,55.4
2017-08-29T12:42:07.817Z,55.7
2017-08-29T12:43:09.614Z,55.7
2017-08-29T12:44:11.749Z,55.6
2017-08-29T12:45:13.547Z,55.7
2017-08-29T12:46:15.676Z,55.6
2017-08-29T12:47:17.476Z,55.9
2017-08-29T12:48:18.923Z,55.5
2017-08-29T12:49:20.384Z,55.4
2017-08-29T12:50:22.517Z,55.8
2017-08-29T12:51:24.294Z,55.3
2017-08-29T12:52:26.093Z,55.7
2017-08-29T12:53:27.896Z,55.6
2017-08-29T12:54:29.701Z,55.7
2017-08-29T12:55:31.830Z,55.4
2017-08-29T12:56:33.272Z,55.5
2017-08-29T12:57:35.403Z,55.8
2017-08-29T12:58:37.200Z,55.6
2017-08-29T12:59:39.332Z,55.5
2017-08-29T13:00:41.132Z,55.5
2017-08-29T13:01:42.932Z,55.7
2017-08-29T13:02:44.731Z,55.5
2017-08-29T13:03:46.864Z,55.9
2017-08-29T13:04:48.661Z,55.4
2017-08-29T13:05:50.796Z,55.7
2017-08-29T13:06:52.927Z,55.3
2017-08-29T13:07:54.704Z,55.8
2017-08-29T13:08:56.839Z,55.4
2017-08-29T13:09:58.993Z,55.4
2017-08-29T13:11:01.128Z,55.4
2017-08-29T13:12:02.571Z,55.2
2017-08-29T13:13:04.700Z,55.2
2017-08-29T13:14:06.474Z,55.6
2017-08-29T13:15:08.251Z,55.2
2017-08-29T13:16:10.386Z,55.2
2017-08-29T13:17:12.519Z,55.2
2017-08-29T13:18:14.299Z,55.8
2017-08-29T13:19:16.434Z,55.3
2017-08-29T13:20:18.235Z,55.3
2017-08-29T13:21:19.409Z,55.8
2017-08-29T13:22:21.182Z,55.9
2017-08-29T13:23:22.986Z,55.5
2017-08-29T13:24:25.119Z,55.4
2017-08-29T13:25:27.253Z,55.3
2017-08-29T13:26:29.385Z,55.5
2017-08-29T13:27:31.519Z,55.1
2017-08-29T13:28:32.982Z,55.5
2017-08-29T13:29:34.099Z,55.3
2017-08-29T13:30:36.233Z,55.6
2017-08-29T13:31:38.010Z,55.6
2017-08-29T13:32:40.140Z,55.4
2017-08-29T13:33:41.938Z,55.1
2017-08-29T13:34:43.380Z,55.1
2017-08-29T13:35:45.178Z,55.1
2017-08-29T13:36:47.312Z,55.2
2017-08-29T13:37:49.094Z,55.2
2017-08-29T13:38:51.272Z,55.5
2017-08-29T13:39:53.049Z,55.5
2017-08-29T13:40:55.191Z,55
2017-08-29T13:41:56.991Z,55
2017-08-29T13:42:59.125Z,55
2017-08-29T13:44:00.902Z,55.4